Time;durP1;ratioP1;P1;durP2;ratioP2;P2;SDS_P1;SDS_P2;PMS_P1;PMS_P2;Temp;Humidity;BMP_temperature;BMP_pressure;BME280_temperature;BME280_humidity;BME280_pressure;Samples;Min_cycle;Max_cycle;Signal;HPM_P1;HPM_P2
2023/04/27 00:00:47;;;;;;;9.07;4.07;;;;;;;1.84;100.00;62955.44;4997791;28;20042;-91
2023/04/27 00:03:12;;;;;;;8.17;4.10;;;;;;;1.80;100.00;62951.31;4996961;28;20353;-90
2023/04/27 00:05:38;;;;;;;9.77;3.90;;;;;;;1.75;100.00;62946.69;4997331;28;20007;-90
2023/04/27 00:08:07;;;;;;;9.23;4.07;;;;;;;1.71;100.00;62942.16;4983407;28;20036;-91
2023/04/27 00:10:32;;;;;;;9.27;3.85;;;;;;;1.66;100.00;62937.78;4970470;28;20027;-91
2023/04/27 00:12:57;;;;;;;11.30;4.37;;;;;;;1.62;100.00;62933.22;4977853;28;20100;-91
2023/04/27 00:15:24;;;;;;;11.10;4.50;;;;;;;1.57;100.00;62928.69;4961430;29;20025;-90
2023/04/27 00:17:50;;;;;;;13.40;4.43;;;;;;;1.53;100.00;62924.00;4988048;28;20073;-90
2023/04/27 00:20:15;;;;;;;9.85;4.20;;;;;;;1.48;100.00;62919.78;4982058;28;20305;-90
2023/04/27 00:22:40;;;;;;;5.00;3.67;;;;;;;1.44;100.00;62915.06;4983679;28;20043;-91
2023/04/27 00:25:06;;;;;;;7.87;3.77;;;;;;;1.39;100.00;62910.53;4980947;28;20023;-92
2023/04/27 00:27:32;;;;;;;5.05;3.90;;;;;;;1.35;100.00;62906.00;4978168;28;20022;-90
2023/04/27 00:29:57;;;;;;;8.47;3.70;;;;;;;1.31;100.00;62901.28;4961545;28;20020;-91
2023/04/27 00:32:22;;;;;;;8.83;3.60;;;;;;;1.26;100.00;62896.50;4978383;28;20083;-90
2023/04/27 00:34:49;;;;;;;6.28;3.78;;;;;;;1.21;100.00;62892.28;4978429;28;20019;-90
2023/04/27 00:37:14;;;;;;;7.30;3.87;;;;;;;1.17;100.00;62887.66;4993742;28;20042;-90
2023/04/27 00:39:39;;;;;;;6.68;3.65;;;;;;;1.12;100.00;62882.88;4990098;28;20012;-90
2023/04/27 00:42:10;;;;;;;8.13;4.03;;;;;;;1.08;100.00;62878.34;4978671;28;20011;-90
2023/04/27 00:44:35;;;;;;;9.07;3.67;;;;;;;1.03;100.00;62873.72;4977692;28;20022;-91
2023/04/27 00:47:00;;;;;;;7.37;3.57;;;;;;;0.98;100.00;62868.75;4977149;28;20040;-91
2023/04/27 00:49:26;;;;;;;10.13;4.00;;;;;;;0.94;100.00;62864.22;4977358;28;20024;-90
2023/04/27 00:51:51;;;;;;;8.03;3.77;;;;;;;0.89;100.00;62859.44;4994480;28;20035;-90
2023/04/27 00:54:18;;;;;;;8.90;3.92;;;;;;;0.85;100.00;62854.66;4996597;28;20031;-90
2023/04/27 00:56:46;;;;;;;5.50;3.63;;;;;;;0.80;100.00;62850.13;4987226;28;20087;-90
2023/04/27 00:59:12;;;;;;;11.17;4.00;;;;;;;0.76;100.00;62845.50;4979794;28;20267;-91
2023/04/27 01:01:38;;;;;;;7.65;3.92;;;;;;;0.72;100.00;62841.03;4980204;28;20026;-91
2023/04/27 01:04:04;;;;;;;13.77;4.07;;;;;;;0.67;100.00;62836.75;4980006;28;20028;-90
2023/04/27 01:06:30;;;;;;;6.65;3.97;;;;;;;0.63;100.00;62832.38;4974333;28;20042;-91
2023/04/27 01:08:56;;;;;;;12.20;4.15;;;;;;;0.59;100.00;62828.91;4957738;29;20078;-91
2023/04/27 01:11:22;;;;;;;11.07;4.30;;;;;;;0.56;100.00;62825.09;4958167;29;20501;-90
2023/04/27 01:13:47;;;;;;;9.10;4.07;;;;;;;0.52;100.00;62821.47;4941650;28;20090;-91
2023/04/27 01:16:13;;;;;;;10.17;4.10;;;;;;;0.48;100.00;62817.94;4957816;28;20031;-91
2023/04/27 01:18:39;;;;;;;7.22;3.83;;;;;;;0.45;100.00;62814.56;4956598;29;20058;-91
2023/04/27 01:21:06;;;;;;;7.60;4.27;;;;;;;0.42;100.00;62811.75;4967535;28;20065;-91
2023/04/27 01:23:34;;;;;;;7.20;3.80;;;;;;;0.38;100.00;62807.78;4961914;28;20298;-90
2023/04/27 01:25:59;;;;;;;12.88;3.90;;;;;;;0.34;100.00;62804.31;4955791;28;20034;-90
2023/04/27 01:28:24;;;;;;;10.18;4.38;;;;;;;0.32;100.00;62802.00;4955771;28;20031;-90
2023/04/27 01:30:50;;;;;;;9.53;4.13;;;;;;;0.29;100.00;62800.00;4957421;28;20443;-90
2023/04/27 01:33:16;;;;;;;8.07;4.43;;;;;;;0.28;100.00;62797.97;4962603;29;20043;-93
2023/04/27 01:35:42;;;;;;;10.38;4.28;;;;;;;0.26;100.00;62796.13;4959678;29;20054;-88
2023/04/27 01:38:07;;;;;;;9.25;4.30;;;;;;;0.24;100.00;62793.91;4954532;29;20031;-88
2023/04/27 01:40:32;;;;;;;11.27;4.60;;;;;;;0.21;100.00;62791.38;4971488;28;20035;-88
2023/04/27 01:42:58;;;;;;;8.83;4.17;;;;;;;0.18;100.00;62788.06;4968290;28;20498;-88
2023/04/27 01:45:23;;;;;;;6.33;3.93;;;;;;;0.15;100.00;62785.25;4965996;28;20023;-88
2023/04/27 01:47:52;;;;;;;10.27;4.18;;;;;;;0.11;100.00;62781.47;4938368;28;20114;-89
2023/04/27 01:50:18;;;;;;;9.52;4.25;;;;;;;0.08;100.00;62778.66;4954057;28;20035;-88
2023/04/27 01:52:44;;;;;;;7.90;4.28;;;;;;;0.05;100.00;62775.84;4954908;29;20034;-89
2023/04/27 01:55:10;;;;;;;7.67;4.40;;;;;;;0.02;100.00;62772.53;4963022;28;20015;-88
2023/04/27 01:57:35;;;;;;;6.73;3.83;;;;;;;-0.02;100.00;62769.16;4974298;28;20161;-88
2023/04/27 02:00:00;;;;;;;8.33;4.90;;;;;;;-0.05;100.00;62765.78;4974123;28;20345;-89
2023/04/27 02:02:25;;;;;;;9.17;4.77;;;;;;;-0.08;100.00;62763.16;4980798;28;20032;-88
2023/04/27 02:04:51;;;;;;;10.93;4.50;;;;;;;-0.09;100.00;62761.91;4988592;28;20026;-88
2023/04/27 02:07:16;;;;;;;6.77;4.43;;;;;;;-0.10;100.00;62760.25;4974194;28;20517;-88
2023/04/27 02:09:41;;;;;;;9.00;4.40;;;;;;;-0.12;100.00;62758.13;4974003;28;20026;-88
2023/04/27 02:12:07;;;;;;;9.18;4.25;;;;;;;-0.14;100.00;62755.63;4949697;28;20483;-88
2023/04/27 02:14:32;;;;;;;8.33;4.33;;;;;;;-0.17;100.00;62753.25;4954190;28;20059;-88
2023/04/27 02:16:57;;;;;;;7.80;4.10;;;;;;;-0.19;100.00;62750.47;4953870;28;20027;-88
2023/04/27 02:19:24;;;;;;;6.63;3.83;;;;;;;-0.22;100.00;62748.28;4954610;28;20062;-88
2023/04/27 02:21:51;;;;;;;10.80;4.18;;;;;;;-0.24;100.00;62746.06;4954561;28;20546;-88
2023/04/27 02:24:16;;;;;;;9.93;3.80;;;;;;;-0.27;100.00;62743.28;4954609;29;20027;-88
2023/04/27 02:26:42;;;;;;;6.47;4.37;;;;;;;-0.29;100.00;62740.88;4937424;29;20380;-89
2023/04/27 02:29:07;;;;;;;13.27;4.07;;;;;;;-0.32;100.00;62738.41;4953597;28;20462;-88
2023/04/27 02:31:32;;;;;;;11.70;4.27;;;;;;;-0.34;100.00;62735.94;4936357;29;20034;-88
2023/04/27 02:33:58;;;;;;;14.13;4.13;;;;;;;-0.37;100.00;62733.47;4953974;28;20271;-89
2023/04/27 02:36:23;;;;;;;8.33;4.67;;;;;;;-0.39;100.00;62731.72;4954118;28;20118;-88
2023/04/27 02:38:48;;;;;;;11.77;4.27;;;;;;;-0.41;100.00;62729.59;4954272;28;20103;-89
2023/04/27 02:41:14;;;;;;;11.60;4.67;;;;;;;-0.43;100.00;62727.69;4953567;28;20061;-88
2023/04/27 02:43:39;;;;;;;10.73;4.80;;;;;;;-0.44;100.00;62725.78;4954036;28;20031;-89
2023/04/27 02:46:05;;;;;;;8.45;4.30;;;;;;;-0.46;100.00;62724.31;4954713;28;20410;-89
2023/04/27 02:48:32;;;;;;;11.07;4.30;;;;;;;-0.48;100.00;62722.00;4946998;29;20031;-89
2023/04/27 02:50:57;;;;;;;8.18;3.90;;;;;;;-0.50;100.00;62720.03;4952711;28;20458;-89
2023/04/27 02:53:22;;;;;;;7.47;4.40;;;;;;;-0.52;100.00;62718.22;4953699;29;20023;-89
2023/04/27 02:55:48;;;;;;;15.10;4.60;;;;;;;-0.53;100.00;62716.25;4953960;28;20086;-89
2023/04/27 02:58:15;;;;;;;10.65;4.07;;;;;;;-0.55;100.00;62714.34;4952804;29;20047;-88
2023/04/27 03:00:42;;;;;;;15.77;4.45;;;;;;;-0.57;100.00;62712.63;4953451;28;20027;-88
2023/04/27 03:03:10;;;;;;;8.25;3.97;;;;;;;-0.59;100.00;62710.53;4953066;28;20035;-88
2023/04/27 03:05:36;;;;;;;12.63;4.68;;;;;;;-0.62;100.00;62708.41;4970301;28;20117;-88
2023/04/27 03:08:02;;;;;;;12.23;4.50;;;;;;;-0.65;100.00;62705.59;4972973;28;20386;-89
2023/04/27 03:10:27;;;;;;;10.13;4.30;;;;;;;-0.67;100.00;62703.44;4972203;28;20038;-88
2023/04/27 03:12:53;;;;;;;11.13;4.67;;;;;;;-0.70;100.00;62701.22;4983712;28;20026;-93
2023/04/27 03:15:20;;;;;;;12.10;4.87;;;;;;;-0.71;100.00;62699.72;4973492;28;20026;-93
2023/04/27 03:17:45;;;;;;;8.23;4.25;;;;;;;-0.73;100.00;62698.25;4987059;28;20058;-92
2023/04/27 03:20:16;;;;;;;11.60;4.85;;;;;;;-0.74;100.00;62696.94;4976526;28;20023;-92
2023/04/27 03:22:44;;;;;;;10.00;4.80;;;;;;;-0.75;100.00;62695.78;4977577;28;20078;-93
2023/04/27 03:25:10;;;;;;;12.15;5.35;;;;;;;-0.76;100.00;62694.22;4965781;28;20050;-93
2023/04/27 03:27:35;;;;;;;9.67;4.47;;;;;;;-0.78;100.00;62692.59;4941338;29;20015;-92
2023/04/27 03:30:02;;;;;;;9.77;4.68;;;;;;;-0.79;100.00;62691.66;4971667;28;20062;-92
2023/04/27 03:32:27;;;;;;;11.50;4.47;;;;;;;-0.81;100.00;62690.34;4962168;28;20114;-92
2023/04/27 03:34:55;;;;;;;9.55;4.80;;;;;;;-0.83;100.00;62688.53;4961182;28;20211;-90
2023/04/27 03:37:20;;;;;;;10.43;4.60;;;;;;;-0.85;100.00;62685.97;4953799;28;20027;-91
2023/04/27 03:39:46;;;;;;;9.10;4.47;;;;;;;-0.88;100.00;62683.50;4958210;28;20324;-91
2023/04/27 03:42:11;;;;;;;14.60;5.03;;;;;;;-0.90;100.00;62681.03;4967402;28;20039;-90
2023/04/27 03:44:36;;;;;;;7.93;4.65;;;;;;;-0.93;100.00;62678.31;4969900;28;20042;-91
2023/04/27 03:47:07;;;;;;;9.37;4.40;;;;;;;-0.96;100.00;62675.00;4972445;28;20035;-90
2023/04/27 03:49:33;;;;;;;12.77;5.15;;;;;;;-0.99;100.00;62672.28;4971099;28;20027;-91
2023/04/27 03:51:58;;;;;;;12.27;5.03;;;;;;;-1.02;100.00;62669.00;4971882;28;20093;-91
2023/04/27 03:54:23;;;;;;;9.60;4.53;;;;;;;-1.05;100.00;62666.19;4971484;28;20422;-91
2023/04/27 03:56:48;;;;;;;8.80;4.77;;;;;;;-1.07;100.00;62663.56;4955583;28;20126;-91
2023/04/27 03:59:14;;;;;;;11.03;4.97;;;;;;;-1.10;100.00;62660.84;4972201;28;20110;-91
2023/04/27 04:01:40;;;;;;;13.50;4.88;;;;;;;-1.13;100.00;62658.03;4972466;28;20471;-90
2023/04/27 04:04:05;;;;;;;10.97;4.60;;;;;;;-1.15;100.00;62656.00;4962585;28;20027;-90
2023/04/27 04:06:31;;;;;;;10.03;4.33;;;;;;;-1.18;100.00;62653.34;4952398;28;20027;-90
2023/04/27 04:08:56;;;;;;;11.68;4.72;;;;;;;-1.19;100.00;62651.28;4952973;28;20479;-90
2023/04/27 04:11:21;;;;;;;15.33;5.40;;;;;;;-1.22;100.00;62648.88;4959922;28;20066;-91
2023/04/27 04:13:47;;;;;;;14.20;5.13;;;;;;;-1.24;100.00;62647.00;4974759;28;20035;-93
2023/04/27 04:16:12;;;;;;;10.60;5.50;;;;;;;-1.25;100.00;62645.44;4973025;28;20034;-95
2023/04/27 04:18:38;;;;;;;11.70;5.53;;;;;;;-1.26;100.00;62644.59;4971719;28;20106;-90
2023/04/27 04:21:03;;;;;;;13.37;6.13;;;;;;;-1.27;100.00;62643.84;4969464;28;20039;-88
2023/04/27 04:23:28;;;;;;;11.57;5.43;;;;;;;-1.28;100.00;62643.22;4952288;28;20059;-91
2023/04/27 04:25:57;;;;;;;10.87;5.23;;;;;;;-1.28;100.00;62642.31;4954039;28;20027;-92
2023/04/27 04:28:23;;;;;;;8.45;5.07;;;;;;;-1.29;100.00;62641.81;4965218;28;20043;-92
2023/04/27 04:30:49;;;;;;;10.35;5.22;;;;;;;-1.29;100.00;62641.41;4976644;28;20030;-92
2023/04/27 04:33:15;;;;;;;12.73;6.05;;;;;;;-1.30;100.00;62639.94;4975831;28;20398;-91
2023/04/27 04:35:41;;;;;;;12.80;5.77;;;;;;;-1.30;100.00;62640.00;4959355;28;20102;-92
2023/04/27 04:38:07;;;;;;;11.13;5.20;;;;;;;-1.30;100.00;62640.25;4970763;28;20358;-91
2023/04/27 04:40:33;;;;;;;10.38;5.25;;;;;;;-1.29;100.00;62641.56;4956279;29;20031;-92
2023/04/27 04:42:58;;;;;;;13.47;5.83;;;;;;;-1.28;100.00;62642.41;4957103;28;20038;-91
2023/04/27 04:45:23;;;;;;;12.98;6.05;;;;;;;-1.26;100.00;62644.38;4959128;28;20043;-92
2023/04/27 04:47:48;;;;;;;15.07;6.13;;;;;;;-1.25;100.00;62644.84;4958586;28;20028;-92
2023/04/27 04:50:14;;;;;;;14.73;5.97;;;;;;;-1.23;100.00;62647.09;4977697;28;20051;-92
2023/04/27 04:52:39;;;;;;;11.63;5.63;;;;;;;-1.22;100.00;62649.00;4962540;29;20020;-91
2023/04/27 04:55:05;;;;;;;12.97;5.43;;;;;;;-1.19;100.00;62651.38;4969029;28;20019;-92
2023/04/27 04:57:30;;;;;;;12.20;5.65;;;;;;;-1.17;100.00;62653.50;4979685;28;20245;-92
2023/04/27 04:59:56;;;;;;;10.27;5.50;;;;;;;-1.14;100.00;62656.78;4968002;28;20035;-91
2023/04/27 05:02:22;;;;;;;11.10;5.80;;;;;;;-1.12;100.00;62659.19;4967295;28;20035;-91
2023/04/27 05:04:47;;;;;;;15.67;6.17;;;;;;;-1.08;100.00;62662.41;4966711;28;20546;-92
2023/04/27 05:07:12;;;;;;;11.87;5.93;;;;;;;-1.05;100.00;62665.72;4970029;28;20023;-92
2023/04/27 05:09:38;;;;;;;15.18;5.93;;;;;;;-1.02;100.00;62669.09;4970731;28;20489;-93
2023/04/27 05:12:05;;;;;;;10.00;5.67;;;;;;;-0.98;100.00;62672.47;4956500;28;20027;-84
2023/04/27 05:14:31;;;;;;;15.07;5.60;;;;;;;-0.95;100.00;62675.75;4955529;28;20054;-84
2023/04/27 05:16:56;;;;;;;12.13;5.53;;;;;;;-0.91;100.00;62679.72;4959420;28;20031;-85
2023/04/27 05:19:21;;;;;;;14.23;6.13;;;;;;;-0.86;100.00;62684.34;4973444;28;20046;-84
2023/04/27 05:21:47;;;;;;;11.95;6.03;;;;;;;-0.81;100.00;62689.69;4950156;28;20548;-84
2023/04/27 05:24:12;;;;;;;20.27;5.93;;;;;;;-0.74;100.00;62696.69;4944760;28;20105;-84
2023/04/27 05:26:37;;;;;;;20.30;6.80;;;;;;;-0.65;100.00;62704.94;4956202;28;20685;-83
2023/04/27 05:29:03;;;;;;;15.47;6.33;;;;;;;-0.56;100.00;62713.59;4953953;28;20051;-85
2023/04/27 05:31:28;;;;;;;14.63;6.43;;;;;;;-0.47;100.00;62722.84;4955210;28;20391;-84
2023/04/27 05:33:54;;;;;;;12.63;6.67;;;;;;;-0.38;100.00;62731.81;4963945;28;20119;-86
2023/04/27 05:36:19;;;;;;;11.53;6.27;;;;;;;-0.28;100.00;62741.78;4955480;28;20081;-85
2023/04/27 05:38:44;;;;;;;14.27;6.10;;;;;;;-0.18;100.00;62751.28;4968867;28;20030;-85
2023/04/27 05:41:10;;;;;;;11.17;6.03;;;;;;;-0.09;100.00;62760.28;4972723;28;20054;-86
2023/04/27 05:43:38;;;;;;;12.40;6.18;;;;;;;-0.01;100.00;62768.38;4967524;28;20514;-84
2023/04/27 05:46:04;;;;;;;14.33;6.03;;;;;;;0.08;100.00;62777.34;4936674;29;20054;-85
2023/04/27 05:48:29;;;;;;;14.25;5.97;;;;;;;0.17;100.00;62786.00;4955333;28;20050;-85
2023/04/27 05:51:02;;;;;;;13.20;6.33;;;;;;;0.25;100.00;62794.00;4958707;28;20034;-85
2023/04/27 05:53:28;;;;;;;12.15;5.82;;;;;;;0.33;100.00;62802.00;4968813;28;20121;-84
2023/04/27 05:55:54;;;;;;;9.88;5.88;;;;;;;0.40;100.00;62809.84;4964597;28;20041;-84
2023/04/27 05:58:19;;;;;;;14.77;6.13;;;;;;;0.48;100.00;62818.25;4962741;28;20027;-84
2023/04/27 06:00:45;;;;;;;13.80;6.15;;;;;;;0.57;100.00;62826.84;4952930;28;20023;-85
2023/04/27 06:03:12;;;;;;;9.83;4.90;;;;;;;0.66;100.00;62835.75;4958664;28;20031;-85
2023/04/27 06:05:37;;;;;;;16.38;6.30;;;;;;;0.75;100.00;62845.25;4952507;28;20399;-85
2023/04/27 06:08:02;;;;;;;9.67;5.27;;;;;;;0.85;100.00;62855.06;4970476;28;20111;-85
2023/04/27 06:10:28;;;;;;;12.80;4.88;;;;;;;0.95;100.00;62864.88;4952796;28;20554;-85
2023/04/27 06:12:53;;;;;;;10.77;5.20;;;;;;;1.04;100.00;62874.78;4952828;28;20435;-85
2023/04/27 06:15:18;;;;;;;15.10;5.67;;;;;;;1.15;100.00;62884.78;4953454;28;20110;-85
2023/04/27 06:17:44;;;;;;;16.85;5.60;;;;;;;1.24;100.00;62895.00;4968933;28;20519;-85
2023/04/27 06:20:10;;;;;;;11.03;4.90;;;;;;;1.35;100.00;62905.25;4948971;28;20019;-84
2023/04/27 06:22:36;;;;;;;10.60;5.32;;;;;;;1.45;100.00;62915.91;4946395;28;20034;-84
2023/04/27 06:25:02;;;;;;;10.83;4.20;;;;;;;1.56;100.00;62926.31;4972986;28;20031;-84
2023/04/27 06:27:27;;;;;;;9.65;5.20;;;;;;;1.67;100.00;62937.69;4959711;28;20110;-83
2023/04/27 06:29:53;;;;;;;9.60;4.53;;;;;;;1.79;100.00;62948.94;4954479;28;20495;-85
2023/04/27 06:32:18;;;;;;;8.73;4.57;;;;;;;1.91;100.00;62961.09;4964992;28;20030;-85
2023/04/27 06:34:46;;;;;;;14.50;3.93;;;;;;;2.02;100.00;62971.84;4962341;28;20042;-84
2023/04/27 06:37:12;;;;;;;11.53;4.97;;;;;;;2.14;100.00;62983.41;4943027;28;20043;-84
2023/04/27 06:39:37;;;;;;;11.73;5.70;;;;;;;2.26;100.00;62995.22;4951332;28;20314;-84
2023/04/27 06:42:03;;;;;;;13.82;5.53;;;;;;;2.38;100.00;63007.53;4934729;29;20031;-84
2023/04/27 06:44:28;;;;;;;6.20;3.90;;;;;;;2.50;100.00;63019.59;4939899;28;20471;-85
2023/04/27 06:46:54;;;;;;;8.82;4.07;;;;;;;2.63;100.00;63031.91;4955959;28;20262;-84
2023/04/27 06:49:20;;;;;;;10.60;4.63;;;;;;;2.75;100.00;63044.38;4955402;28;20467;-85
2023/04/27 06:51:47;;;;;;;15.63;4.70;;;;;;;2.87;100.00;63056.53;4950028;28;20688;-85
2023/04/27 06:54:13;;;;;;;10.84;4.26;;;;;;;2.99;100.00;63068.78;4915463;28;1103916;-85
2023/04/27 06:56:38;;;;;;;8.43;4.07;;;;;;;3.10;100.00;63080.75;4965343;28;20038;-85
2023/04/27 06:59:03;;;;;;;10.33;3.83;;;;;;;3.22;100.00;63092.41;4953631;28;20265;-84
2023/04/27 07:01:29;;;;;;;10.77;4.23;;;;;;;3.34;99.68;63104.72;4953700;28;20031;-83
2023/04/27 07:03:54;;;;;;;13.07;4.50;;;;;;;3.47;98.24;63117.66;4951993;28;20114;-83
2023/04/27 07:06:21;;;;;;;9.37;4.33;;;;;;;3.60;97.66;63130.38;4955074;28;20035;-84
2023/04/27 07:08:46;;;;;;;12.73;4.68;;;;;;;3.73;97.72;63143.53;4955289;28;20046;-83
2023/04/27 07:11:12;;;;;;;16.20;5.87;;;;;;;3.85;97.24;63156.19;4970158;28;20397;-84
2023/04/27 07:13:37;;;;;;;11.60;5.80;;;;;;;3.99;97.04;63169.69;4972853;28;20026;-83
2023/04/27 07:16:03;;;;;;;12.27;5.00;;;;;;;4.11;94.73;63182.09;4971373;28;20054;-84
2023/04/27 07:18:30;;;;;;;15.60;5.45;;;;;;;4.23;94.25;63193.84;4953533;28;20027;-83
2023/04/27 07:20:56;;;;;;;5.72;4.05;;;;;;;4.35;93.03;63206.00;4937827;29;20376;-84
2023/04/27 07:23:22;;;;;;;13.88;5.00;;;;;;;4.47;93.00;63217.53;4950437;28;20062;-84
2023/04/27 07:25:48;;;;;;;14.37;5.03;;;;;;;4.59;94.79;63229.28;4935923;28;20065;-82
2023/04/27 07:28:14;;;;;;;12.32;5.10;;;;;;;4.69;91.43;63240.22;4951812;29;20047;-83
2023/04/27 07:30:40;;;;;;;10.57;4.27;;;;;;;4.80;91.48;63250.88;4954819;28;20167;-83
2023/04/27 07:33:08;;;;;;;12.52;5.22;;;;;;;4.91;91.27;63261.56;4951835;28;20027;-83
2023/04/27 07:35:34;;;;;;;11.77;5.10;;;;;;;5.02;91.40;63272.66;4952352;28;20042;-83
2023/04/27 07:38:02;;;;;;;8.65;4.93;;;;;;;5.12;90.79;63283.53;4951948;28;20527;-83
2023/04/27 07:40:29;;;;;;;9.82;5.05;;;;;;;5.23;88.56;63294.53;4951567;28;20130;-83
2023/04/27 07:42:55;;;;;;;11.60;5.35;;;;;;;5.35;87.61;63305.97;4958340;28;20042;-84
2023/04/27 07:45:21;;;;;;;11.43;5.17;;;;;;;5.46;88.37;63318.06;4963998;28;20398;-83
2023/04/27 07:47:46;;;;;;;14.70;4.85;;;;;;;5.58;84.47;63330.31;4971485;28;20494;-83
2023/04/27 07:50:16;;;;;;;16.00;5.43;;;;;;;5.71;83.17;63342.66;4972610;28;20078;-83
2023/04/27 07:52:43;;;;;;;8.57;5.43;;;;;;;5.83;82.57;63355.25;4971086;28;20071;-83
2023/04/27 07:55:08;;;;;;;12.90;5.40;;;;;;;5.95;83.22;63367.69;4971236;28;20035;-84
2023/04/27 07:57:34;;;;;;;10.80;5.05;;;;;;;6.08;82.15;63380.56;4964020;28;20091;-83
2023/04/27 08:00:00;;;;;;;10.57;5.10;;;;;;;6.21;82.20;63393.72;4950889;28;20089;-83
2023/04/27 08:02:29;;;;;;;6.82;4.05;;;;;;;6.34;80.05;63406.84;4971192;28;20041;-83
2023/04/27 08:04:54;;;;;;;13.93;5.75;;;;;;;6.47;79.09;63419.53;4971089;28;20031;-83
2023/04/27 08:07:21;;;;;;;7.70;3.80;;;;;;;6.59;76.32;63432.03;4971802;28;20532;-83
2023/04/27 08:09:49;;;;;;;7.93;4.30;;;;;;;6.72;75.53;63444.63;4963856;28;20078;-83
2023/04/27 08:12:15;;;;;;;9.48;4.95;;;;;;;6.84;75.01;63456.94;4954596;28;20035;-85
2023/04/27 08:14:40;;;;;;;6.70;3.80;;;;;;;6.97;75.01;63468.94;4963558;28;20065;-84
2023/04/27 08:17:05;;;;;;;8.20;3.57;;;;;;;7.10;73.79;63481.97;4968826;28;20031;-84
2023/04/27 08:19:31;;;;;;;8.20;3.85;;;;;;;7.23;72.51;63494.75;4959819;28;20200;-84
2023/04/27 08:21:56;;;;;;;7.33;4.00;;;;;;;7.37;74.26;63509.09;4960648;28;20138;-84
2023/04/27 08:24:21;;;;;;;10.10;4.00;;;;;;;7.51;70.46;63523.63;4966226;28;20502;-83
2023/04/27 08:26:46;;;;;;;9.13;4.30;;;;;;;7.66;71.29;63538.72;4962868;28;20034;-83
2023/04/27 08:29:12;;;;;;;7.00;4.13;;;;;;;7.81;68.85;63554.25;4965867;28;20130;-83
2023/04/27 08:31:37;;;;;;;6.53;3.87;;;;;;;7.96;67.37;63569.44;4957280;28;20119;-83
2023/04/27 08:34:02;;;;;;;10.75;3.88;;;;;;;8.11;66.13;63584.63;4966867;28;20031;-84
2023/04/27 08:36:28;;;;;;;7.60;3.60;;;;;;;8.25;64.73;63599.00;4951519;28;20463;-84
2023/04/27 08:38:53;;;;;;;7.50;3.33;;;;;;;8.39;62.55;63613.09;4963801;28;20117;-83
2023/04/27 08:41:20;;;;;;;7.67;3.40;;;;;;;8.53;62.79;63626.91;4971034;28;20034;-82
2023/04/27 08:43:50;;;;;;;8.15;4.00;;;;;;;8.65;64.41;63639.53;4963701;28;20023;-84
2023/04/27 08:46:20;;;;;;;10.38;3.88;;;;;;;8.77;64.38;63650.91;4937777;28;20118;-83
2023/04/27 08:48:46;;;;;;;6.10;3.58;;;;;;;8.88;63.35;63661.88;4939080;29;20154;-83
2023/04/27 08:51:14;;;;;;;9.00;3.60;;;;;;;8.98;60.51;63671.78;4953080;28;20051;-83
2023/04/27 08:53:47;;;;;;;8.15;4.10;;;;;;;9.08;64.16;63682.56;4972019;28;20031;-83
2023/04/27 08:56:12;;;;;;;6.88;3.90;;;;;;;9.18;62.94;63692.78;4970273;28;20039;-82
2023/04/27 08:58:38;;;;;;;7.53;3.70;;;;;;;9.30;63.13;63704.44;4956064;28;20091;-81
2023/04/27 09:01:07;;;;;;;9.13;3.30;;;;;;;9.40;58.43;63715.47;4966019;28;20827;-83
2023/04/27 09:03:33;;;;;;;7.47;3.47;;;;;;;9.51;58.93;63726.09;4970578;28;20072;-82
2023/04/27 09:06:02;;;;;;;6.47;3.25;;;;;;;9.62;58.10;63737.16;4970825;28;20037;-82
2023/04/27 09:08:28;;;;;;;9.45;3.83;;;;;;;9.73;58.22;63748.53;4954101;28;20043;-83
2023/04/27 09:10:55;;;;;;;6.43;3.10;;;;;;;9.84;55.79;63759.84;4953506;28;20383;-84
2023/04/27 09:13:20;;;;;;;6.60;3.27;;;;;;;9.96;55.65;63771.91;4951986;28;20791;-83
2023/04/27 09:15:52;;;;;;;7.18;3.85;;;;;;;10.07;55.87;63783.13;4971949;28;20029;-82
2023/04/27 09:18:19;;;;;;;7.88;3.53;;;;;;;10.17;55.41;63793.28;4973635;28;20109;-82
2023/04/27 09:20:49;;;;;;;6.88;3.63;;;;;;;10.27;55.29;63802.91;4972506;28;20430;-83
2023/04/27 09:23:31;;;;;;;8.70;3.77;;;;;;;10.37;56.15;63813.41;4973405;28;20471;-83
2023/04/27 09:26:07;;;;;;;8.50;3.93;;;;;;;10.49;52.74;63824.88;4955458;28;20275;-83
2023/04/27 09:28:36;;;;;;;6.10;3.75;;;;;;;10.59;50.63;63835.72;4963438;28;20058;-83
2023/04/27 09:31:03;;;;;;;5.93;3.65;;;;;;;10.69;52.12;63846.09;4970999;28;20027;-83
2023/04/27 09:33:31;;;;;;;6.88;3.40;;;;;;;10.79;50.04;63855.84;4962381;28;20035;-83
2023/04/27 09:35:58;;;;;;;8.10;3.80;;;;;;;10.89;53.59;63865.66;4953801;28;20083;-84
2023/04/27 09:38:24;;;;;;;5.97;3.95;;;;;;;10.98;49.34;63875.22;4954111;28;20023;-86
2023/04/27 09:40:51;;;;;;;6.15;3.47;;;;;;;11.08;49.10;63885.47;4936859;29;20023;-86
2023/04/27 09:43:18;;;;;;;7.73;3.30;;;;;;;11.18;48.61;63895.78;4954567;29;20023;-85
2023/04/27 09:45:44;;;;;;;7.30;3.10;;;;;;;11.27;46.87;63905.44;4953899;28;20341;-85
2023/04/27 09:48:11;;;;;;;5.72;3.08;;;;;;;11.37;47.59;63914.84;4967287;28;20440;-83
2023/04/27 09:50:39;;;;;;;5.25;3.10;;;;;;;11.47;47.29;63925.00;4949961;28;20538;-83
2023/04/27 09:53:12;;;;;;;7.80;2.83;;;;;;;11.58;47.97;63935.97;4975624;28;20069;-83
2023/04/27 09:56:24;;;;;;;5.50;2.90;;;;;;;11.70;44.34;63948.47;4958612;28;20080;-84
2023/04/27 09:59:16;;;;;;;5.67;2.90;;;;;;;11.81;42.89;63959.63;4949260;28;20302;-84
2023/04/27 10:01:53;;;;;;;7.32;3.30;;;;;;;11.92;45.23;63970.00;4953014;28;20042;-84
2023/04/27 10:04:49;;;;;;;4.50;3.38;;;;;;;12.02;46.33;63981.34;4976528;28;20031;-84
2023/04/27 10:07:16;;;;;;;6.68;3.58;;;;;;;12.13;45.34;63992.09;4952600;28;20497;-84
2023/04/27 10:09:45;;;;;;;8.25;4.05;;;;;;;12.23;44.60;64002.59;4936795;29;20066;-86
2023/04/27 10:12:22;;;;;;;9.15;4.47;;;;;;;12.34;47.80;64012.94;4955953;28;20046;-87
2023/04/27 10:15:10;;;;;;;5.57;3.53;;;;;;;12.44;45.42;64022.94;4955908;28;20149;-85
2023/04/27 10:17:36;;;;;;;7.38;3.95;;;;;;;12.52;44.89;64030.84;4957339;28;20043;-85
2023/04/27 10:20:04;;;;;;;7.00;4.33;;;;;;;12.60;44.41;64038.91;4955482;28;20023;-86
2023/04/27 10:22:39;;;;;;;5.95;4.05;;;;;;;12.69;44.90;64047.91;4951650;28;20043;-86
2023/04/27 10:25:21;;;;;;;4.47;3.78;;;;;;;12.78;43.65;64056.25;4955465;28;20031;-85
2023/04/27 10:28:02;;;;;;;5.90;4.15;;;;;;;12.87;44.45;64065.31;4965352;28;20067;-83
2023/04/27 10:30:38;;;;;;;12.70;4.40;;;;;;;12.95;42.49;64073.25;4961703;28;20030;-86
2023/04/27 10:33:23;;;;;;;6.27;4.13;;;;;;;13.03;43.84;64081.16;4960249;28;20027;-86
2023/04/27 10:35:57;;;;;;;5.10;3.80;;;;;;;13.09;43.70;64087.59;4965996;28;20309;-86
2023/04/27 10:38:29;;;;;;;7.47;3.78;;;;;;;13.16;44.36;64094.16;4974993;28;20117;-87
2023/04/27 10:40:57;;;;;;;7.97;4.15;;;;;;;13.22;44.63;64100.41;4971060;28;20046;-88
2023/04/27 10:43:25;;;;;;;6.43;4.00;;;;;;;13.30;43.67;64108.50;4976462;28;20526;-88
2023/04/27 10:45:51;;;;;;;4.20;3.50;;;;;;;13.37;40.98;64115.91;4973275;28;20027;-87
2023/04/27 10:48:16;;;;;;;5.70;3.63;;;;;;;13.42;40.39;64121.84;4970510;28;20033;-87
2023/04/27 10:50:43;;;;;;;6.30;3.60;;;;;;;13.46;42.56;64125.94;4958217;28;20094;-85
2023/04/27 10:53:09;;;;;;;9.73;3.55;;;;;;;13.49;42.99;64128.84;4961372;28;20508;-85
2023/04/27 10:55:35;;;;;;;10.40;3.73;;;;;;;13.52;42.24;64132.53;4968117;28;20034;-86
2023/04/27 10:58:01;;;;;;;8.33;3.83;;;;;;;13.55;41.82;64135.69;4970596;28;20283;-88
2023/04/27 11:00:36;;;;;;;6.40;4.13;;;;;;;13.56;40.96;64136.94;4961865;28;20041;-87
2023/04/27 11:03:21;;;;;;;7.00;4.10;;;;;;;13.58;43.65;64138.94;4963877;28;20023;-87
2023/04/27 11:05:57;;;;;;;5.13;3.60;;;;;;;13.59;42.09;64140.69;4967853;28;20035;-86
2023/04/27 11:08:23;;;;;;;6.97;4.47;;;;;;;13.60;40.91;64141.34;4955168;28;20082;-86
2023/04/27 11:10:50;;;;;;;7.97;4.27;;;;;;;13.62;40.04;64143.03;4962708;28;20423;-86
2023/04/27 11:13:21;;;;;;;6.78;4.07;;;;;;;13.62;42.07;64143.75;4950146;28;20099;-87
2023/04/27 11:15:54;;;;;;;5.53;3.80;;;;;;;13.63;41.47;64144.38;4964184;28;20391;-86
2023/04/27 11:18:22;;;;;;;7.83;4.23;;;;;;;13.63;41.53;64144.59;4957533;28;20692;-88
2023/04/27 11:20:49;;;;;;;6.63;4.13;;;;;;;13.63;42.08;64144.94;4953371;28;20298;-87
2023/04/27 11:23:29;;;;;;;8.15;4.78;;;;;;;13.64;40.79;64145.69;4958773;28;20111;-87
2023/04/27 11:26:15;;;;;;;5.22;4.20;;;;;;;13.65;40.74;64146.28;4953975;28;20475;-87
2023/04/27 11:28:55;;;;;;;7.95;3.70;;;;;;;13.67;39.16;64147.94;4928540;28;20058;-88